Time;durP1;ratioP1;P1;durP2;ratioP2;P2;SDS_P1;SDS_P2;PMS_P1;PMS_P2;Temp;Humidity;BMP_temperature;BMP_pressure;BME280_temperature;BME280_humidity;BME280_pressure;Samples;Min_cycle;Max_cycle;Signal;HPM_P1;HPM_P2
2021/12/12 00:00:35;;;;;;;36.08;14.90;;;;;;;3.34;100.00;102273.84;10541695;28;20044;-54
2021/12/12 00:05:42;;;;;;;29.00;14.83;;;;;;;3.38;100.00;102262.63;10543248;28;20072;-54
2021/12/12 00:10:49;;;;;;;31.98;14.93;;;;;;;3.34;100.00;102269.50;10542742;28;20294;-54
2021/12/12 00:15:51;;;;;;;31.55;14.20;;;;;;;3.42;100.00;102259.13;10542073;28;20529;-57
2021/12/12 00:20:54;;;;;;;24.35;14.10;;;;;;;3.33;100.00;102248.84;10542026;28;20126;-57
2021/12/12 00:25:58;;;;;;;25.88;12.40;;;;;;;3.33;100.00;102241.91;10542281;28;20051;-58
2021/12/12 00:31:08;;;;;;;29.23;13.35;;;;;;;3.30;100.00;102228.13;10541495;28;20050;-53
2021/12/12 00:36:14;;;;;;;34.30;14.45;;;;;;;3.29;100.00;102241.94;10541707;28;20052;-57
2021/12/12 00:41:26;;;;;;;38.38;13.85;;;;;;;3.43;100.00;102231.50;10541359;28;20058;-58
2021/12/12 00:46:28;;;;;;;;;;;;;;;3.31;100.00;102227.25;10541871;28;20052;-59
2021/12/12 00:51:34;;;;;;;28.42;14.73;;;;;;;3.19;100.00;102219.53;10541138;28;19920;-55
2021/12/12 00:56:36;;;;;;;30.15;14.02;;;;;;;3.30;100.00;102210.84;10541253;28;20069;-55
2021/12/12 01:01:47;;;;;;;23.17;11.68;;;;;;;3.32;100.00;102195.31;10540231;28;20044;-58
2021/12/12 01:06:52;;;;;;;30.27;13.52;;;;;;;3.25;100.00;102204.00;10540574;28;20408;-56
2021/12/12 01:11:57;;;;;;;28.00;13.30;;;;;;;3.32;100.00;102197.91;10540197;28;20430;-54
2021/12/12 01:17:21;;;;;;;25.77;11.88;;;;;;;3.38;100.00;102187.53;10540731;28;20044;-57
2021/12/12 01:22:29;;;;;;;22.92;10.10;;;;;;;3.52;100.00;102203.84;10539888;28;20506;-56
2021/12/12 01:27:32;;;;;;;24.85;10.60;;;;;;;3.56;100.00;102207.28;10539848;28;20506;-58
2021/12/12 01:32:34;;;;;;;30.17;11.65;;;;;;;3.53;100.00;102199.50;10539726;28;20048;-56
2021/12/12 01:37:39;;;;;;;37.50;12.25;;;;;;;3.44;100.00;102213.38;10539798;28;20090;-58
2021/12/12 01:42:48;;;;;;;33.70;12.13;;;;;;;3.50;100.00;102197.81;10540276;28;20048;-55
2021/12/12 01:48:18;;;;;;;20.02;10.65;;;;;;;3.50;100.00;102218.53;10538487;28;20055;-58
2021/12/12 01:53:25;;;;;;;21.55;11.30;;;;;;;3.42;100.00;102207.34;10537295;28;20048;-58
2021/12/12 01:58:30;;;;;;;34.22;12.02;;;;;;;3.47;100.00;102210.78;10539320;28;20044;-58
2021/12/12 02:03:35;;;;;;;28.23;11.70;;;;;;;3.51;100.00;102199.56;10539253;28;20052;-57
2021/12/12 02:08:39;;;;;;;22.00;11.20;;;;;;;3.56;100.00;102202.09;10539513;28;20048;-57
2021/12/12 02:13:44;;;;;;;32.47;12.27;;;;;;;3.48;100.00;102198.69;10541665;28;20048;-57
2021/12/12 02:18:51;;;;;;;25.40;11.93;;;;;;;3.60;100.00;102198.63;10546185;28;20040;-59
2021/12/12 02:40:06;;;;;;;25.23;11.30;;;;;;;3.71;100.00;102195.97;10544809;28;20685;-56
2021/12/12 02:45:11;;;;;;;23.48;10.02;;;;;;;3.72;100.00;102193.38;10546114;28;20048;-55
2021/12/12 02:50:20;;;;;;;32.55;11.95;;;;;;;3.66;100.00;102182.19;10545994;28;20078;-59
2021/12/12 02:55:35;;;;;;;27.20;11.32;;;;;;;3.73;100.00;102176.09;10544901;28;20040;-56
2021/12/12 03:00:44;;;;;;;19.50;10.40;;;;;;;3.79;100.00;102176.06;10545512;28;20044;-57
2021/12/12 03:05:48;;;;;;;24.02;11.73;;;;;;;3.74;100.00;102166.59;10545632;28;20079;-57
2021/12/12 03:10:54;;;;;;;30.30;11.25;;;;;;;3.70;100.00;102145.03;10543949;28;20048;-57
2021/12/12 03:15:56;;;;;;;30.50;13.32;;;;;;;3.80;100.00;102148.41;10544598;28;20438;-57
2021/12/12 03:21:04;;;;;;;32.95;12.88;;;;;;;3.76;100.00;102144.97;10544297;28;20480;-58
2021/12/12 03:26:09;;;;;;;36.83;14.43;;;;;;;3.71;100.00;102141.56;10544088;28;20507;-58
2021/12/12 03:31:28;;;;;;;30.45;14.20;;;;;;;3.75;100.00;102156.22;10543871;28;20420;-58
2021/12/12 03:36:30;;;;;;;32.60;15.10;;;;;;;3.75;100.00;102145.00;10543915;28;20408;-56
2021/12/12 03:41:35;;;;;;;37.88;15.40;;;;;;;3.78;100.00;102147.56;10543500;28;20047;-58
2021/12/12 03:46:38;;;;;;;45.95;16.52;;;;;;;3.79;100.00;102165.69;10543243;28;20055;-58
2021/12/12 03:51:42;;;;;;;37.28;16.73;;;;;;;3.75;100.00;102155.34;10543520;28;20226;-59
2021/12/12 03:56:45;;;;;;;36.80;17.35;;;;;;;3.80;100.00;102153.59;10542959;28;20435;-56
2021/12/12 04:01:49;;;;;;;31.45;15.88;;;;;;;3.78;100.00;102140.63;10543394;28;20040;-58
2021/12/12 04:06:52;;;;;;;27.23;14.65;;;;;;;3.86;100.00;102156.13;10542769;28;20058;-60
2021/12/12 04:12:00;;;;;;;36.50;14.35;;;;;;;3.95;100.00;102162.97;10542234;28;20054;-58
2021/12/12 04:17:08;;;;;;;25.60;14.25;;;;;;;4.03;100.00;102169.81;10542684;28;20051;-59
2021/12/12 04:22:10;;;;;;;31.75;15.05;;;;;;;3.91;100.00;102167.31;10541892;28;20055;-56
2021/12/12 04:27:14;;;;;;;24.00;14.32;;;;;;;3.98;100.00;102158.63;10542219;28;20040;-55
2021/12/12 04:32:20;;;;;;;29.33;16.25;;;;;;;4.00;100.00;102154.31;10541919;28;20040;-55
2021/12/12 04:37:24;;;;;;;40.90;18.17;;;;;;;4.00;100.00;102151.72;10540856;28;20040;-59
2021/12/12 04:42:33;;;;;;;31.77;16.60;;;;;;;4.04;100.00;102152.56;10541171;28;20506;-58
2021/12/12 04:53:08;;;;;;;29.35;14.90;;;;;;;4.14;100.00;102155.94;10540612;28;20052;-57
2021/12/12 04:58:34;;;;;;;27.27;15.25;;;;;;;4.17;100.00;102163.66;10540812;28;20059;-59
2021/12/12 05:03:36;;;;;;;18.08;11.38;;;;;;;4.33;100.00;102161.78;10540615;28;20044;-57
2021/12/12 05:08:44;;;;;;;23.52;12.82;;;;;;;4.25;100.00;102159.25;10540503;28;20048;-59
2021/12/12 05:13:52;;;;;;;23.15;13.98;;;;;;;4.31;100.00;102163.56;10538762;28;20488;-60
2021/12/12 05:19:11;;;;;;;24.55;13.88;;;;;;;4.38;100.00;102154.84;10539628;28;20052;-59
2021/12/12 05:24:15;;;;;;;22.15;12.38;;;;;;;4.42;100.00;102172.06;10539098;28;20059;-57
2021/12/12 05:29:24;;;;;;;27.85;13.60;;;;;;;4.50;100.00;102156.44;10538729;28;20499;-58
2021/12/12 05:34:32;;;;;;;18.40;11.00;;;;;;;4.57;100.00;102166.75;10538404;28;20480;-59
2021/12/12 05:39:35;;;;;;;22.45;11.52;;;;;;;4.60;100.00;102158.91;10539902;28;20044;-58
2021/12/12 05:44:37;;;;;;;25.67;13.50;;;;;;;4.60;100.00;102160.66;10538350;28;20060;-58
2021/12/12 05:49:41;;;;;;;14.63;10.07;;;;;;;4.71;100.00;102163.13;10544556;28;20048;-57
2021/12/12 05:54:45;;;;;;;16.50;9.82;;;;;;;4.75;100.00;102133.69;10547700;28;20048;-59
2021/12/12 05:59:48;;;;;;;17.17;11.45;;;;;;;4.86;100.00;102160.38;10547845;28;20048;-59
2021/12/12 06:04:50;;;;;;;20.05;12.40;;;;;;;4.92;100.00;102146.47;10546216;28;20043;-60
2021/12/12 06:09:53;;;;;;;20.05;13.10;;;;;;;4.98;100.00;102155.03;10547341;28;20058;-60
2021/12/12 06:14:56;;;;;;;17.15;12.27;;;;;;;5.00;100.00;102155.88;10545990;28;20047;-59
2021/12/12 06:19:59;;;;;;;14.15;10.27;;;;;;;5.04;100.00;102167.06;10545941;28;20044;-59
2021/12/12 06:25:02;;;;;;;15.73;11.95;;;;;;;5.02;100.00;102163.63;10545623;28;20056;-59
2021/12/12 06:30:08;;;;;;;17.75;13.60;;;;;;;5.06;100.00;102167.94;10546666;28;20048;-59
2021/12/12 06:35:12;;;;;;;25.52;15.52;;;;;;;5.07;100.00;102171.38;10546296;28;20404;-60
2021/12/12 06:40:19;;;;;;;20.42;15.10;;;;;;;5.05;100.00;102165.34;10546005;28;20055;-59
2021/12/12 06:45:23;;;;;;;19.02;14.50;;;;;;;5.12;100.00;102154.84;10546096;28;20051;-59
2021/12/12 06:50:27;;;;;;;27.95;18.70;;;;;;;5.09;100.00;102148.84;10544692;28;20052;-60
2021/12/12 06:55:34;;;;;;;26.98;17.20;;;;;;;5.22;100.00;102169.44;10544640;28;20381;-59
2021/12/12 07:00:37;;;;;;;30.92;18.08;;;;;;;5.22;100.00;102159.03;10543571;28;20055;-60
2021/12/12 07:05:40;;;;;;;29.58;17.40;;;;;;;5.29;100.00;102171.94;10545542;28;20052;-60
2021/12/12 07:10:43;;;;;;;22.33;16.02;;;;;;;5.33;100.00;102191.78;10543985;28;20044;-60
2021/12/12 07:15:52;;;;;;;40.40;19.85;;;;;;;5.32;100.00;102190.94;10543544;28;20044;-60
2021/12/12 07:20:59;;;;;;;27.00;18.60;;;;;;;5.37;100.00;102204.72;10544869;28;20434;-59
2021/12/12 07:26:04;;;;;;;29.20;18.45;;;;;;;5.31;100.00;102202.22;10544534;28;20055;-59
2021/12/12 07:31:10;;;;;;;39.65;21.83;;;;;;;5.27;100.00;102187.56;10543980;28;20515;-57
2021/12/12 07:36:13;;;;;;;39.15;23.20;;;;;;;5.39;100.00;102199.50;10542878;28;20048;-60
2021/12/12 07:41:19;;;;;;;30.40;21.95;;;;;;;5.52;100.00;102215.81;10544417;28;20113;-60
2021/12/12 07:46:22;;;;;;;41.70;24.90;;;;;;;5.57;100.00;102225.25;10543751;28;20048;-60
2021/12/12 07:51:25;;;;;;;45.92;25.48;;;;;;;5.62;100.00;102211.34;10542288;28;20040;-59
2021/12/12 07:56:36;;;;;;;34.35;22.27;;;;;;;5.70;100.00;102214.66;10543272;28;20087;-59
2021/12/12 08:01:42;;;;;;;44.13;23.95;;;;;;;5.74;100.00;102222.41;10543232;28;20047;-58
2021/12/12 08:06:45;;;;;;;47.00;25.45;;;;;;;5.71;100.00;102232.00;10543100;28;20056;-59
2021/12/12 08:11:47;;;;;;;40.85;21.00;;;;;;;5.81;100.00;102224.94;10540385;28;20040;-60
2021/12/12 08:16:51;;;;;;;45.53;25.05;;;;;;;5.83;100.00;102242.19;10541083;28;20404;-59
2021/12/12 08:22:03;;;;;;;33.08;19.48;;;;;;;5.83;100.00;102228.34;10540936;28;20122;-60
2021/12/12 08:27:06;;;;;;;;;;;;;;;5.95;100.00;102251.56;10542286;28;20435;-58
2021/12/12 08:32:10;;;;;;;49.58;28.02;;;;;;;5.91;100.00;102255.09;10541610;28;19927;-58
2021/12/12 08:37:33;;;;;;;61.10;30.27;;;;;;;6.09;100.00;102254.00;10541608;28;20048;-58
2021/12/12 08:42:35;;;;;;;38.25;23.48;;;;;;;6.15;100.00;102261.69;10540002;28;20546;-60
2021/12/12 08:47:38;;;;;;;55.88;27.00;;;;;;;6.09;100.00;102257.47;10541349;28;20411;-59
2021/12/12 08:52:43;;;;;;;47.13;25.90;;;;;;;6.20;100.00;102262.47;10540046;28;20483;-58
2021/12/12 08:58:02;;;;;;;51.50;27.67;;;;;;;6.07;100.00;102259.22;10539714;28;20059;-58
2021/12/12 09:03:10;;;;;;;49.05;26.08;;;;;;;6.38;100.00;102276.94;10540606;28;20040;-59
2021/12/12 09:08:23;;;;;;;35.25;20.42;;;;;;;6.40;100.00;102287.34;10539228;28;20492;-60
2021/12/12 09:13:40;;;;;;;35.25;21.20;;;;;;;6.49;100.00;102293.25;10540354;28;20071;-59
2021/12/12 09:19:13;;;;;;;37.72;19.23;;;;;;;6.41;100.00;102297.72;10539247;28;20048;-59
2021/12/12 09:24:30;;;;;;;39.53;22.00;;;;;;;6.51;100.00;102299.28;10538368;28;20055;-58
2021/12/12 09:29:37;;;;;;;40.53;22.55;;;;;;;6.55;100.00;102320.06;10540658;28;20052;-60
2021/12/12 09:34:49;;;;;;;33.67;20.33;;;;;;;6.58;100.00;102320.84;10538540;28;20401;-59
2021/12/12 09:40:06;;;;;;;31.45;19.73;;;;;;;6.68;100.00;102318.97;10538395;28;20048;-60
2021/12/12 09:45:32;;;;;;;39.28;20.17;;;;;;;6.74;100.00;102329.28;10539633;28;20055;-60
2021/12/12 09:56:29;;;;;;;38.88;21.27;;;;;;;6.77;100.00;102310.13;10539371;28;20044;-59
2021/12/12 10:01:40;;;;;;;23.38;15.57;;;;;;;6.82;100.00;102319.56;10539357;28;20044;-60
2021/12/12 10:06:46;;;;;;;26.13;17.92;;;;;;;6.95;100.00;102330.66;10539316;28;20052;-60
2021/12/12 10:12:17;;;;;;;36.30;18.77;;;;;;;6.83;100.00;102330.88;10539291;28;20052;-59
2021/12/12 10:17:31;;;;;;;28.52;16.13;;;;;;;6.84;100.00;102327.38;10538027;28;20045;-59
2021/12/12 10:23:10;;;;;;;23.63;15.48;;;;;;;7.06;100.00;102325.22;10537787;28;20392;-60
2021/12/12 10:28:26;;;;;;;25.67;16.67;;;;;;;7.10;100.00;102326.91;10538821;28;20115;-61
2021/12/12 10:33:47;;;;;;;27.15;15.93;;;;;;;7.20;100.00;102319.78;10540669;28;20054;-60
2021/12/12 10:39:13;;;;;;;24.98;15.15;;;;;;;7.29;100.00;102316.16;10546345;28;20048;-60
2021/12/12 10:44:26;;;;;;;31.02;17.77;;;;;;;7.28;100.00;102320.50;10544919;28;20084;-59
2021/12/12 10:49:52;;;;;;;31.27;17.35;;;;;;;7.43;100.00;102328.03;10546314;28;20051;-58
2021/12/12 10:55:04;;;;;;;24.77;14.30;;;;;;;7.47;100.00;102336.63;10546154;28;20050;-59
2021/12/12 11:00:15;;;;;;;20.50;14.70;;;;;;;7.45;100.00;102322.78;10545784;28;20048;-59
2021/12/12 11:05:22;;;;;;;27.90;16.30;;;;;;;7.51;100.00;102324.41;10545453;28;20048;-60
2021/12/12 11:10:29;;;;;;;34.80;18.52;;;;;;;7.33;100.00;102312.56;10545329;28;20051;-59
2021/12/12 11:15:44;;;;;;;26.20;15.30;;;;;;;7.46;100.00;102315.81;10543957;28;20052;-59
2021/12/12 11:21:17;;;;;;;37.28;19.35;;;;;;;7.52;100.00;102319.16;10543688;28;20161;-59
2021/12/12 11:26:37;;;;;;;28.52;16.00;;;;;;;7.61;100.00;102313.72;10538347;28;20511;-60
2021/12/12 11:31:42;;;;;;;22.60;13.90;;;;;;;7.55;100.00;102307.81;10544194;28;20373;-59
2021/12/12 11:37:16;;;;;;;18.17;11.48;;;;;;;7.58;100.00;102306.00;10544627;28;20040;-60
2021/12/12 11:43:02;;;;;;;15.38;10.23;;;;;;;7.60;100.00;102309.44;10542374;28;20052;-60
2021/12/12 11:48:42;;;;;;;19.40;11.75;;;;;;;7.69;100.00;102325.78;10472353;28;20404;-59
2021/12/12 11:53:52;;;;;;;18.10;12.63;;;;;;;7.69;100.00;102326.63;10543418;28;20128;-60
2021/12/12 11:59:30;;;;;;;14.68;9.90;;;;;;;7.60;100.00;102316.41;10543109;28;20058;-59
2021/12/12 12:04:57;;;;;;;18.92;11.90;;;;;;;7.62;100.00;102318.06;10525570;28;20056;-60
2021/12/12 12:10:20;;;;;;;19.63;11.70;;;;;;;7.67;100.00;102330.16;10542760;28;20055;-59
2021/12/12 12:15:36;;;;;;;26.83;15.88;;;;;;;7.91;100.00;102345.28;10541449;28;20048;-60
2021/12/12 12:20:54;;;;;;;22.58;13.85;;;;;;;8.10;100.00;102350.97;10542235;28;20476;-60
2021/12/12 12:31:55;;;;;;;21.25;14.05;;;;;;;8.12;100.00;102349.19;10542023;28;20085;-59
2021/12/12 12:37:15;;;;;;;17.63;12.50;;;;;;;7.90;100.00;102356.63;10541494;28;20503;-60
2021/12/12 12:42:43;;;;;;;24.85;16.92;;;;;;;8.06;100.00;102343.25;10540988;28;20534;-61
2021/12/12 12:48:13;;;;;;;19.42;14.95;;;;;;;8.16;100.00;102343.00;10541519;28;20054;-60
2021/12/12 12:53:28;;;;;;;20.48;14.25;;;;;;;8.07;100.00;102351.03;10540822;28;20050;-59
2021/12/12 12:58:55;;;;;;;20.13;15.75;;;;;;;8.31;100.00;102353.97;10539400;28;20044;-60
2021/12/12 13:04:22;;;;;;;16.25;12.48;;;;;;;8.15;100.00;102354.34;10540981;28;20055;-60
2021/12/12 13:09:35;;;;;;;17.80;13.77;;;;;;;8.27;100.00;102362.75;10540679;28;20044;-59
2021/12/12 13:15:20;;;;;;;23.25;15.65;;;;;;;8.24;100.00;102357.59;10539021;28;20050;-59
2021/12/12 13:20:36;;;;;;;17.63;12.73;;;;;;;8.13;100.00;102365.69;10540229;28;20097;-59
2021/12/12 13:26:02;;;;;;;20.63;13.90;;;;;;;8.25;100.00;102367.16;10539370;28;20048;-59
2021/12/12 13:31:23;;;;;;;23.63;16.73;;;;;;;8.26;100.00;102366.28;10529647;28;20051;-59
2021/12/12 13:36:54;;;;;;;20.42;13.77;;;;;;;8.29;100.00;102380.13;10539921;28;20083;-62
2021/12/12 13:42:14;;;;;;;24.33;15.50;;;;;;;8.34;100.00;102373.03;10539416;28;20052;-60
2021/12/12 13:47:38;;;;;;;19.30;13.88;;;;;;;8.32;100.00;102373.94;10539674;28;20063;-59
2021/12/12 13:53:01;;;;;;;20.15;14.38;;;;;;;8.35;100.00;102392.16;10539716;28;20127;-60
2021/12/12 13:58:27;;;;;;;20.40;14.65;;;;;;;8.44;100.00;102384.16;10539859;28;20051;-59
2021/12/12 14:03:53;;;;;;;29.60;16.90;;;;;;;8.45;100.00;102377.19;10539431;28;20044;-60
2021/12/12 14:09:11;;;;;;;19.73;15.00;;;;;;;8.51;100.00;102390.09;10531752;28;20048;-60
2021/12/12 14:14:37;;;;;;;21.75;14.68;;;;;;;8.58;100.00;102391.66;10546772;28;20044;-60
2021/12/12 14:19:46;;;;;;;21.20;15.40;;;;;;;8.63;100.00;102395.03;10547350;28;20059;-60
2021/12/12 14:24:49;;;;;;;18.63;12.88;;;;;;;8.58;100.00;102398.66;10545949;28;20047;-60
2021/12/12 14:29:52;;;;;;;21.23;14.13;;;;;;;8.62;100.00;102400.28;10545505;28;20495;-60
2021/12/12 14:35:08;;;;;;;19.73;14.55;;;;;;;8.52;100.00;102400.50;10546568;28;20043;-60
2021/12/12 14:40:26;;;;;;;16.58;13.98;;;;;;;8.67;100.00;102429.75;10546698;28;20521;-60
2021/12/12 14:45:41;;;;;;;17.13;12.77;;;;;;;8.61;100.00;102416.81;10546048;28;20057;-59
2021/12/12 14:50:52;;;;;;;24.70;17.27;;;;;;;8.68;100.00;102431.47;10544906;28;20046;-60
2021/12/12 14:55:59;;;;;;;18.98;13.80;;;;;;;8.86;100.00;102451.06;10544540;28;20438;-60
2021/12/12 15:01:07;;;;;;;23.38;14.50;;;;;;;8.66;100.00;102430.66;10545027;28;20047;-60
2021/12/12 15:06:16;;;;;;;24.73;16.83;;;;;;;8.68;100.00;102448.00;10545222;28;20048;-60
2021/12/12 15:11:23;;;;;;;22.13;15.48;;;;;;;8.72;100.00;102449.66;10545342;28;20403;-59
2021/12/12 15:16:30;;;;;;;24.90;17.38;;;;;;;8.72;100.00;102448.78;10543833;28;20047;-61
2021/12/12 15:21:36;;;;;;;25.40;17.02;;;;;;;8.78;100.00;102458.25;10544505;28;20051;-60
2021/12/12 15:26:41;;;;;;;25.33;17.38;;;;;;;8.72;100.00;102527.13;10544656;28;20404;-61
2021/12/12 15:31:48;;;;;;;26.92;18.15;;;;;;;8.86;100.00;102466.72;10545197;28;20052;-60
2021/12/12 15:37:01;;;;;;;30.08;19.13;;;;;;;8.84;100.00;102468.53;10542815;28;20378;-59
2021/12/12 15:42:08;;;;;;;27.02;17.98;;;;;;;8.92;100.00;102475.28;10544158;28;20056;-59
2021/12/12 15:47:14;;;;;;;39.55;20.83;;;;;;;8.81;100.00;102479.03;10544189;28;20058;-60
2021/12/12 15:52:24;;;;;;;30.85;19.70;;;;;;;8.88;100.00;102486.72;10543267;28;20107;-60
2021/12/12 15:57:36;;;;;;;30.35;21.13;;;;;;;8.92;100.00;102484.88;10542221;28;20056;-60
2021/12/12 16:02:42;;;;;;;32.10;22.02;;;;;;;8.82;100.00;102488.59;10543004;28;20453;-59
2021/12/12 16:07:53;;;;;;;26.13;18.15;;;;;;;8.71;100.00;102484.47;10543513;28;20048;-61
2021/12/12 16:13:00;;;;;;;30.38;21.20;;;;;;;8.82;100.00;102494.69;10542595;28;20048;-59
2021/12/12 16:18:03;;;;;;;37.13;21.40;;;;;;;8.81;100.00;102495.59;10541722;28;20048;-59
2021/12/12 16:23:11;;;;;;;31.52;20.05;;;;;;;8.79;100.00;102494.75;10541037;28;20040;-61
2021/12/12 16:28:16;;;;;;;30.92;20.38;;;;;;;9.04;100.00;102512.47;10542000;28;20449;-60
2021/12/12 16:33:26;;;;;;;28.58;19.80;;;;;;;8.99;100.00;102519.56;10539897;28;20051;-60
2021/12/12 16:38:30;;;;;;;40.28;23.58;;;;;;;8.90;100.00;102513.66;10541352;28;20052;-61
2021/12/12 16:43:38;;;;;;;31.55;22.20;;;;;;;9.10;100.00;102520.16;10540115;28;20063;-60
2021/12/12 16:48:49;;;;;;;31.10;21.13;;;;;;;9.02;100.00;102522.94;10540128;28;20048;-60
2021/12/12 16:53:54;;;;;;;39.38;23.98;;;;;;;8.95;100.00;102530.97;10541204;28;20047;-60
2021/12/12 16:58:59;;;;;;;38.58;23.65;;;;;;;8.98;100.00;102531.78;10540978;28;20059;-59
2021/12/12 17:04:12;;;;;;;42.17;25.42;;;;;;;9.02;100.00;102541.25;10540749;28;20047;-60
2021/12/12 17:09:18;;;;;;;48.75;27.33;;;;;;;9.09;100.00;102540.22;10541044;28;20044;-60
2021/12/12 17:14:24;;;;;;;44.55;26.15;;;;;;;9.18;100.00;102533.91;10540264;28;20381;-60
2021/12/12 17:19:35;;;;;;;49.67;27.10;;;;;;;9.15;100.00;102540.97;10539010;28;20050;-60
2021/12/12 17:24:41;;;;;;;48.75;27.92;;;;;;;9.04;100.00;102542.06;10540332;28;20048;-60
2021/12/12 17:29:46;;;;;;;53.67;29.92;;;;;;;9.11;100.00;102546.28;10539074;28;20048;-59
2021/12/12 17:34:53;;;;;;;55.95;28.45;;;;;;;9.16;100.00;102550.50;10538703;28;20054;-60
2021/12/12 17:40:08;;;;;;;65.07;32.05;;;;;;;9.22;100.00;102551.22;10538306;28;20048;-60
2021/12/12 17:45:37;;;;;;;59.25;30.75;;;;;;;9.25;100.00;102547.69;10551145;28;20404;-61
2021/12/12 17:51:17;;;;;;;68.80;34.33;;;;;;;9.40;100.00;102562.16;10553717;28;20044;-60
2021/12/12 17:56:23;;;;;;;67.10;34.13;;;;;;;9.42;100.00;102558.59;10553288;28;20044;-61
2021/12/12 18:01:33;;;;;;;98.45;41.20;;;;;;;9.43;100.00;102568.16;10552259;28;20082;-61
2021/12/12 18:06:40;;;;;;;90.90;40.50;;;;;;;9.28;100.00;102573.78;10553161;28;20502;-61
2021/12/12 18:11:49;;;;;;;102.18;45.30;;;;;;;9.40;100.00;102575.22;10552981;28;20060;-60
2021/12/12 18:17:14;;;;;;;123.22;48.63;;;;;;;9.42;100.00;102576.03;10552091;28;20044;-61
2021/12/12 18:22:22;;;;;;;98.20;41.10;;;;;;;9.34;100.00;102576.22;10553208;28;20502;-60
2021/12/12 18:27:39;;;;;;;110.15;48.10;;;;;;;9.63;100.00;102577.25;10553633;28;20052;-60
2021/12/12 18:32:44;;;;;;;115.13;48.95;;;;;;;9.60;100.00;102591.28;10551581;28;20062;-61
2021/12/12 18:37:56;;;;;;;102.25;48.95;;;;;;;9.46;100.00;102582.91;10551338;28;20519;-60
2021/12/12 18:43:00;;;;;;;145.88;55.15;;;;;;;9.47;100.00;102595.94;10552339;28;20062;-60
2021/12/12 18:48:05;;;;;;;128.90;52.85;;;;;;;9.49;100.00;102581.06;10552287;28;20063;-60
2021/12/12 18:53:48;;;;;;;128.05;55.53;;;;;;;9.62;100.00;102584.25;10550833;28;20496;-60
2021/12/12 18:58:51;;;;;;;116.82;54.03;;;;;;;9.66;100.00;102598.09;10470329;28;20047;-61
2021/12/12 19:04:05;;;;;;;142.82;57.85;;;;;;;9.59;100.00;102604.41;10544254;28;20044;-60
2021/12/12 19:09:16;;;;;;;145.70;59.80;;;;;;;9.76;100.00;102609.22;10544943;28;20094;-60
2021/12/12 19:14:23;;;;;;;108.53;53.70;;;;;;;9.62;100.00;102618.25;10543782;28;20052;-60
2021/12/12 19:19:29;;;;;;;132.15;56.65;;;;;;;9.74;100.00;102611.00;10544670;28;20048;-60
2021/12/12 19:24:32;;;;;;;106.72;50.88;;;;;;;9.71;100.00;102624.16;10544574;28;20488;-60
2021/12/12 19:29:40;;;;;;;118.97;54.63;;;;;;;9.79;100.00;102633.53;10544745;28;20048;-60
2021/12/12 19:34:46;;;;;;;125.70;55.00;;;;;;;9.69;100.00;102632.03;10544361;28;20048;-60
2021/12/12 19:39:51;;;;;;;93.57;50.38;;;;;;;9.71;100.00;102632.84;10543375;28;20050;-59
2021/12/12 19:45:12;;;;;;;101.38;49.67;;;;;;;9.89;100.00;102644.63;10543417;28;20404;-60
2021/12/12 19:50:22;;;;;;;95.13;50.47;;;;;;;9.75;100.00;102641.47;10544405;28;20051;-59
2021/12/12 19:55:27;;;;;;;92.28;47.47;;;;;;;9.75;100.00;102655.44;10543787;28;20059;-60
2021/12/12 20:00:42;;;;;;;93.47;48.42;;;;;;;9.97;100.00;102653.16;10542061;28;20051;-61
2021/12/12 20:06:10;;;;;;;96.43;51.58;;;;;;;9.84;100.00;102636.03;10543037;28;20076;-60
2021/12/12 20:11:23;;;;;;;99.40;49.20;;;;;;;9.74;100.00;102639.78;10543249;28;20044;-60
2021/12/12 20:16:45;;;;;;;91.22;47.58;;;;;;;9.71;100.00;102640.69;10542387;28;20396;-59
2021/12/12 20:22:15;;;;;;;79.33;43.83;;;;;;;9.85;100.00;102662.16;10542219;28;20052;-60
2021/12/12 20:27:58;;;;;;;83.72;46.38;;;;;;;9.88;100.00;102697.00;10542229;28;20048;-60
2021/12/12 20:33:09;;;;;;;75.10;41.63;;;;;;;9.62;100.00;102709.78;10542609;28;20055;-61
2021/12/12 20:38:18;;;;;;;89.80;46.25;;;;;;;9.67;100.00;102679.16;10541554;28;20430;-60
2021/12/12 20:43:25;;;;;;;88.20;46.17;;;;;;;9.78;100.00;102670.19;10540736;28;20059;-60
2021/12/12 20:48:34;;;;;;;86.15;49.33;;;;;;;10.01;100.00;102644.31;10541429;28;20056;-61
2021/12/12 20:53:45;;;;;;;83.30;44.15;;;;;;;9.92;100.00;102641.94;10541156;28;20052;-61
2021/12/12 20:58:54;;;;;;;81.13;43.60;;;;;;;9.82;100.00;102627.38;10541169;28;20079;-60
2021/12/12 21:04:06;;;;;;;86.90;47.80;;;;;;;9.91;100.00;102634.97;10541045;28;20374;-60
2021/12/12 21:09:12;;;;;;;79.88;43.83;;;;;;;9.94;100.00;102668.94;10541676;28;20058;-60
2021/12/12 21:14:26;;;;;;;94.50;49.55;;;;;;;9.84;100.00;102654.34;10540707;28;20048;-61
2021/12/12 21:19:31;;;;;;;83.18;47.03;;;;;;;9.90;100.00;102655.94;10539857;28;20427;-60
2021/12/12 21:24:54;;;;;;;90.38;46.15;;;;;;;9.77;100.00;102664.09;10540086;28;20507;-59
2021/12/12 21:30:05;;;;;;;88.93;45.78;;;;;;;9.78;100.00;102660.56;10540185;28;20048;-60
2021/12/12 21:35:08;;;;;;;95.45;48.70;;;;;;;9.78;100.00;102660.56;10540013;28;20052;-60
2021/12/12 21:40:16;;;;;;;82.72;44.80;;;;;;;9.92;100.00;102662.00;10539666;28;20399;-60
2021/12/12 21:45:30;;;;;;;81.78;44.22;;;;;;;9.79;100.00;102662.31;10540338;28;20063;-60
2021/12/12 21:50:46;;;;;;;83.03;47.47;;;;;;;9.74;100.00;102692.09;10539495;28;20051;-60
2021/12/12 21:55:56;;;;;;;80.88;43.13;;;;;;;9.76;100.00;102688.53;10539196;28;20044;-60
2021/12/12 22:01:01;;;;;;;67.53;41.88;;;;;;;9.71;100.00;102687.78;10539446;28;20127;-60
2021/12/12 22:06:11;;;;;;;61.92;36.35;;;;;;;9.73;100.00;102701.69;10539585;28;20076;-60
2021/12/12 22:11:14;;;;;;;63.50;40.35;;;;;;;9.84;100.00;102711.91;10539181;28;20051;-59
2021/12/12 22:16:23;;;;;;;60.45;36.25;;;;;;;9.74;100.00;102711.25;10539522;28;20115;-60
2021/12/12 22:21:26;;;;;;;75.32;40.80;;;;;;;9.69;100.00;102693.97;10521164;28;20044;-60
2021/12/12 22:26:37;;;;;;;69.25;39.90;;;;;;;9.80;100.00;102711.13;10538984;28;20055;-60
2021/12/12 22:31:43;;;;;;;63.80;37.28;;;;;;;9.72;100.00;102713.06;10544680;28;20446;-60
2021/12/12 22:36:51;;;;;;;76.00;40.05;;;;;;;9.72;100.00;102723.53;10546820;28;20522;-60
2021/12/12 22:42:02;;;;;;;55.97;35.05;;;;;;;9.96;100.00;102723.84;10545820;28;20083;-60
2021/12/12 22:47:07;;;;;;;60.80;35.07;;;;;;;9.78;100.00;102714.66;10546486;28;20051;-59
2021/12/12 22:52:26;;;;;;;62.55;33.95;;;;;;;9.70;100.00;102719.19;10544905;28;20110;-60
2021/12/12 22:57:52;;;;;;;46.40;28.67;;;;;;;9.82;100.00;102732.03;10544402;28;20419;-60
2021/12/12 23:02:55;;;;;;;60.22;33.40;;;;;;;9.80;100.00;102720.72;10545393;28;20048;-60
2021/12/12 23:08:03;;;;;;;52.88;33.60;;;;;;;9.88;100.00;103013.59;10544017;28;20381;-60
2021/12/12 23:13:16;;;;;;;57.67;35.22;;;;;;;9.82;100.00;102517.50;10544978;28;20511;-60
2021/12/12 23:18:24;;;;;;;58.67;32.65;;;;;;;9.82;100.00;102677.94;10544974;28;20051;-61
2021/12/12 23:23:38;;;;;;;52.83;30.25;;;;;;;9.79;100.00;102680.63;10544998;28;20044;-60
2021/12/12 23:34:07;;;;;;;40.75;25.75;;;;;;;9.92;100.00;102698.63;10543310;28;20044;-61
2021/12/12 23:39:15;;;;;;;42.50;26.33;;;;;;;9.70;100.00;102691.31;10544148;28;20052;-60
2021/12/12 23:49:50;;;;;;;34.65;21.42;;;;;;;9.79;100.00;102609.13;10544083;28;20055;-62
2021/12/12 23:55:01;;;;;;;38.55;24.63;;;;;;;9.78;100.00;102621.34;10542529;28;20071;-60
